Chicago/Rockford International Airport

KRFD · Illinois, United States

METAR history KRFD · Chicago/Rockford International Airport

Below you see METARs of the last few days. Select a year to browse through older METARs, from the year 2007 onwards.

April 13, 2024

Time Code Weather Temp. Visibility Ceiling Wind METAR/SPECI
23:54
V
17 °C 10 mi - 170° 170° 9 kt METAR KRFD 140454Z 17009KT 10SM FEW170 17/08 A2977 RMK AO2 SLP077 T01720078
22:54
V
17 °C 10 mi 16,000 ft 170° 170° 11 kt METAR KRFD 140354Z 17011KT 10SM BKN160 17/07 A2979 RMK AO2 SLP087 T01720072
21:54
V
18 °C 10 mi - 170° 170° 12 kt METAR KRFD 140254Z 17012KT 10SM SCT180 18/06 A2981 RMK AO2 SLP094 T01830061 57013
20:54
V
19 °C 10 mi 18,000 ft 170° 170° 14 kt METAR KRFD 140154Z 17014KT 10SM FEW150 BKN180 19/04 A2982 RMK AO2 SLP099 T01940044
19:54
V
20 °C 10 mi - 160° 160° 7 kt METAR KRFD 140054Z 16007KT 10SM FEW150 SCT250 20/03 A2984 RMK AO2 SLP106 T02000033
18:54
V
21 °C 10 mi 25,000 ft 170° 170° 13 kt METAR KRFD 132354Z 17013KT 10SM BKN250 21/03 A2985 RMK AO2 SLP109 T02110028 10228 20189 56030
17:54
V
22 °C 10 mi 25,000 ft 180° 180° 16 - 22 kt METAR KRFD 132254Z 18016G22KT 10SM BKN250 22/04 A2988 RMK AO2 SLP119 T02220039
16:54
V
22 °C 10 mi 25,000 ft 190° 190° 13 - 20 kt METAR KRFD 132154Z 19013G20KT 10SM BKN250 22/03 A2991 RMK AO2 SLP128 T02220033
15:54
V
22 °C 10 mi - 170° 170° 13 - 21 kt METAR KRFD 132054Z 17013G21KT 10SM FEW250 22/03 A2994 RMK AO2 SLP140 T02220028 58037
14:54
V
22 °C 10 mi - 200° 200° 10 - 19 kt METAR KRFD 131954Z 20010G19KT 10SM FEW250 22/02 A2998 RMK AO2 SLP152 T02170022
13:54
V
21 °C 10 mi - 230° 230° 10 kt METAR KRFD 131854Z 23010KT 10SM FEW250 21/02 A3002 RMK AO2 SLP167 T02060022
12:54
V
19 °C 10 mi - 230° 230° 9 kt METAR KRFD 131754Z 23009KT 10SM CLR 19/02 A3006 RMK AO2 SLP178 T01890017 10194 20028 58019
11:54
V
18 °C 10 mi - 250° 250° 6 kt METAR KRFD 131654Z 25006KT 10SM CLR 18/02 A3009 RMK AO2 SLP188 T01780017
10:54
V
17 °C 10 mi - Var Var 6 kt METAR KRFD 131554Z VRB06KT 10SM CLR 17/00 A3011 RMK AO2 SLP197 T01670000
09:54
V
14 °C 10 mi - 360° 360° 0 kt METAR KRFD 131454Z 00000KT 10SM CLR 14/01 A3011 RMK AO2 SLP198 T01440011 58002
08:54
V
12 °C 10 mi - 360° 360° 0 kt METAR KRFD 131354Z 00000KT 10SM CLR 12/02 A3013 RMK AO2 SLP202 T01170022
07:54
V
7 °C 10 mi - 360° 360° 0 kt METAR KRFD 131254Z 00000KT 10SM CLR 07/01 A3013 RMK AO2 SLP205 T00720011
06:54
V
3 °C 10 mi - 140° 140° 3 kt METAR KRFD 131154Z 14003KT 10SM CLR 03/01 A3012 RMK AO2 SLP202 T00280006 10083 20017 53010
05:54
V
3 °C 10 mi - 360° 360° 0 kt METAR KRFD 131054Z 00000KT 10SM CLR 03/00 A3010 RMK AO2 SLP196 T00280000
04:54
V
3 °C 10 mi - 360° 360° 0 kt METAR KRFD 130954Z 00000KT 10SM CLR 03/00 A3009 RMK AO2 SLP193 T00280000
03:54
V
4 °C 10 mi - 210° 210° 3 kt METAR KRFD 130854Z 21003KT 10SM CLR 04/00 A3009 RMK AO2 SLP190 T00390000 53008
02:54
V
7 °C 10 mi - 360° 360° 0 kt METAR KRFD 130754Z 00000KT 10SM CLR 07/00 A3007 RMK AO2 SLP183 T00720000
01:54
V
8 °C 10 mi - 260° 260° 6 kt METAR KRFD 130654Z 26006KT 10SM CLR 08/01 A3008 RMK AO2 SLP186 T00780006
00:54
V
8 °C 10 mi - 290° 290° 4 kt METAR KRFD 130554Z 29004KT 10SM CLR 08/01 A3006 RMK AO2 SLP181 T00830011 10156 20083 401780083 53014

April 12, 2024

Time Code Weather Temp. Visibility Ceiling Wind METAR/SPECI
23:54
V
11 °C 10 mi - 290° 290° 8 kt METAR KRFD 130454Z 29008KT 10SM CLR 11/01 A3005 RMK AO2 SLP175 T01060011
22:54
V
11 °C 10 mi - 280° 280° 8 kt METAR KRFD 130354Z 28008KT 10SM CLR 11/01 A3003 RMK AO2 SLP171 T01060011
21:54
V
12 °C 10 mi - 280° 280° 9 kt METAR KRFD 130254Z 28009KT 10SM CLR 12/01 A3002 RMK AO2 SLP167 T01170011 53023
20:54
V
12 °C 10 mi - 270° 270° 7 kt METAR KRFD 130154Z 27007KT 10SM FEW090 12/01 A2999 RMK AO2 SLP158 T01220011
19:54
V
13 °C 10 mi - 290° 290° 8 kt METAR KRFD 130054Z 29008KT 10SM FEW075 13/01 A2997 RMK AO2 SLP149 T01330006
18:54
V
16 °C 10 mi - 300° 300° 12 - 25 kt METAR KRFD 122354Z 30012G25KT 10SM FEW080 16/01 A2995 RMK AO2 PK WND 30030/2305 SLP143 T01560006 10178 20156 51022
17:54
V
17 °C 10 mi - 310° 310° 18 - 28 kt METAR KRFD 122254Z 31018G28KT 10SM SCT080 17/01 A2993 RMK AO2 PK WND 27032/2211 SLP138 T01670006
16:54
V
17 °C 10 mi 8,500 ft 300° 300° 19 - 29 kt METAR KRFD 122154Z 30019G29KT 10SM BKN085 17/01 A2990 RMK AO2 PK WND 28032/2140 SLP126 T01720011
15:54
V
18 °C 10 mi 7,000 ft 290° 290° 19 - 32 kt METAR KRFD 122054Z 29019G32KT 10SM BKN070 18/02 A2988 RMK AO2 PK WND 29034/2008 SLP120 T01780017 51013
14:54
V
17 °C 10 mi 8,000 ft 280° 280° 22 - 31 kt METAR KRFD 121954Z 28022G31KT 10SM BKN080 17/02 A2987 RMK AO2 PK WND 29034/1904 SLP117 T01720017
13:54
V
17 °C 10 mi 6,500 ft 280° 280° 21 - 31 kt METAR KRFD 121854Z 28021G31KT 10SM BKN065 17/02 A2986 RMK AO2 PK WND 30033/1759 SLP111 T01720022
12:54
V
17 °C 10 mi - 300° 300° 23 - 33 kt METAR KRFD 121754Z 30023G33KT 10SM SCT050 17/03 A2984 RMK AO2 PK WND 29033/1748 SLP107 T01720028 10172 20089 51010
11:54
V
16 °C 10 mi - 290° 290° 23 - 35 kt METAR KRFD 121654Z 29023G35KT 10SM SCT050 16/04 A2984 RMK AO2 PK WND 29035/1653 SLP104 T01610044
10:54
V
15 °C 10 mi - 320° 320° 19 - 30 kt METAR KRFD 121554Z 32019G30KT 10SM FEW040 FEW220 15/04 A2982 RMK AO2 PK WND 31031/1536 SLP099 T01500039
09:54
V
14 °C 10 mi - 310° 310° 22 - 31 kt METAR KRFD 121454Z 31022G31KT 10SM FEW030 FEW220 SCT250 14/04 A2981 RMK AO2 PK WND 31031/1404 SLP096 T01390044 51024
08:54
V
12 °C 10 mi - 310° 310° 20 - 30 kt METAR KRFD 121354Z 31020G30KT 10SM SCT220 SCT250 12/05 A2979 RMK AO2 PK WND 31031/1318 SLP088 T01170050
07:54
V
10 °C 10 mi 25,000 ft 310° 310° 17 kt METAR KRFD 121254Z 31017KT 10SM SCT220 BKN250 10/05 A2977 RMK AO2 SLP083 T01000050
06:54
V
9 °C 10 mi 22,000 ft 310° 310° 10 kt METAR KRFD 121154Z 31010KT 10SM FEW075 SCT170 BKN220 09/05 A2974 RMK AO2 SLP073 60000 T00890050 10094 20083 53028 $
05:54
V
9 °C 10 mi - 310° 310° 8 kt METAR KRFD 121054Z 31008KT 10SM FEW075 SCT090 09/06 A2971 RMK AO2 SLP060 T00890056 $
04:54
V
9 °C 10 mi - 310° 310° 12 kt METAR KRFD 120954Z 31012KT 10SM SCT170 09/06 A2968 RMK AO2 SLP050 T00890056 $
03:54
V
9 °C 10 mi 5,000 ft 300° 300° 9 kt METAR KRFD 120854Z 30009KT 10SM FEW042 BKN050 BKN090 09/07 A2966 RMK AO2 RAE10 SLP043 P0000 60000 T00940067 53002 $
02:54
V
9 °C 10 mi 4,500 ft 290° 290° 10 kt METAR KRFD 120754Z 29010KT 10SM -RA BKN045 BKN055 OVC095 09/07 A2964 RMK AO2 RAB11 SLP038 P0000 T00940067 $
01:54
V
9 °C 10 mi 7,000 ft 280° 280° 10 kt METAR KRFD 120654Z 28010KT 10SM OVC070 09/07 A2964 RMK AO2 SLP037 T00890067
00:54
V
9 °C 10 mi - 290° 290° 10 kt METAR KRFD 120554Z 29010KT 10SM FEW050 SCT065 SCT080 09/07 A2965 RMK AO2 RAE51 SLP040 P0000 60000 T00940067 10117 20094 401720089 53001

April 11, 2024

Time Code Weather Temp. Visibility Ceiling Wind METAR/SPECI
23:54
V
10 °C 10 mi 5,500 ft 310° 310° 11 kt METAR KRFD 120454Z 31011KT 10SM -RA BKN055 OVC110 10/07 A2965 RMK AO2 RAB17 SLP040 P0000 T01000072
22:54
V
9 °C 10 mi 11,000 ft 310° 310° 8 kt METAR KRFD 120354Z 31008KT 10SM SCT042 OVC110 09/07 A2964 RMK AO2 RAE40 SLP037 P0000 T00940067
21:54
V
10 °C 10 mi 4,000 ft 310° 310° 11 kt METAR KRFD 120254Z 31011KT 10SM -RA BKN040 OVC055 10/07 A2965 RMK AO2 RAB20E29B47 SLP039 P0000 60000 T01000072 52012
20:54
V
10 °C 10 mi 4,900 ft 310° 310° 9 kt METAR KRFD 120154Z 31009KT 10SM BKN049 OVC065 10/07 A2963 RMK AO2 RAE54 SLP036 P0000 T01000067
Report a change